Time;durP1;ratioP1;P1;durP2;ratioP2;P2;SDS_P1;SDS_P2;PMS_P1;PMS_P2;Temp;Humidity;BMP_temperature;BMP_pressure;BME280_temperature;BME280_humidity;BME280_pressure;Samples;Min_cycle;Max_cycle;Signal;HPM_P1;HPM_P2
2021/12/20 07:59:28;;;;;;;15.98;7.13;;;;;;;6.41;77.64;102675.59;5321711;27;20351;-69
2021/12/20 08:01:59;;;;;;;26.27;7.78;;;;;;;6.42;76.81;102680.91;5319859;28;20055;-70
2021/12/20 08:04:31;;;;;;;17.95;5.30;;;;;;;6.39;76.70;102677.72;5311464;28;20490;-70
2021/12/20 08:07:03;;;;;;;18.38;7.10;;;;;;;6.41;77.02;102684.69;5316491;28;20029;-71
2021/12/20 08:09:34;;;;;;;26.00;6.50;;;;;;;6.41;77.06;102681.94;5309199;28;20026;-70
2021/12/20 08:12:06;;;;;;;17.95;6.70;;;;;;;6.43;76.18;102679.81;5306187;28;20032;-70
2021/12/20 08:14:37;;;;;;;16.80;5.18;;;;;;;6.48;76.53;102682.78;5306960;28;20043;-69
2021/12/20 08:17:09;;;;;;;22.90;7.40;;;;;;;6.55;76.47;102681.91;5304297;28;20020;-69
2021/12/20 08:19:40;;;;;;;19.45;5.28;;;;;;;6.59;76.62;102681.25;5313361;28;20035;-70
2021/12/20 08:22:12;;;;;;;20.85;5.95;;;;;;;6.61;76.56;102686.56;5300248;28;20070;-71
2021/12/20 08:24:43;;;;;;;15.65;5.22;;;;;;;6.63;75.59;102681.66;5308772;28;20120;-70
2021/12/20 08:27:14;;;;;;;17.75;4.80;;;;;;;6.67;75.17;102688.41;5307614;28;20348;-71
2021/12/20 08:29:45;;;;;;;18.58;5.35;;;;;;;6.66;75.21;102689.50;5302869;28;20106;-70
2021/12/20 08:32:17;;;;;;;25.42;5.38;;;;;;;6.65;75.25;102687.81;5308623;28;20028;-72
2021/12/20 08:34:48;;;;;;;19.48;7.38;;;;;;;6.66;74.57;102684.81;5310332;28;20023;-71
2021/12/20 08:37:20;;;;;;;20.83;5.32;;;;;;;6.65;73.82;102688.66;5311526;28;20024;-72
2021/12/20 08:39:52;;;;;;;15.48;4.45;;;;;;;6.69;74.00;102691.81;5306756;28;20110;-75
2021/12/20 08:42:23;;;;;;;18.70;4.78;;;;;;;6.60;72.83;102690.38;5307496;28;20107;-73
2021/12/20 08:44:54;;;;;;;16.08;4.18;;;;;;;6.70;73.96;102693.53;5303885;28;20029;-72
2021/12/20 08:47:26;;;;;;;14.18;4.82;;;;;;;6.70;74.23;102694.38;5312034;28;20077;-72
2021/12/20 08:49:58;;;;;;;17.08;5.00;;;;;;;6.71;73.59;102697.97;5307771;28;20073;-72
2021/12/20 08:52:30;;;;;;;19.85;4.70;;;;;;;6.67;72.96;102694.81;5303860;28;20368;-72
2021/12/20 08:55:01;;;;;;;16.23;4.70;;;;;;;6.75;73.43;102693.72;5306736;28;20034;-73
2021/12/20 08:57:32;;;;;;;38.92;24.65;;;;;;;6.75;72.78;102700.06;5302597;28;20031;-71
2021/12/20 09:00:09;;;;;;;56.05;33.38;;;;;;;6.82;73.14;102693.66;5311869;28;20035;-72
2021/12/20 09:02:40;;;;;;;17.65;8.13;;;;;;;6.83;71.82;102692.63;5300554;28;20017;-72
2021/12/20 09:05:12;;;;;;;19.42;7.75;;;;;;;6.76;70.62;102695.41;5307461;28;20517;-72
2021/12/20 09:07:44;;;;;;;13.30;4.70;;;;;;;6.80;70.79;102698.53;5315882;28;20436;-72
2021/12/20 09:10:16;;;;;;;13.45;3.28;;;;;;;6.70;66.57;102694.38;5305107;28;20024;-71
2021/12/20 09:12:47;;;;;;;8.23;2.85;;;;;;;6.70;66.73;102696.28;5282443;28;20027;-72
2021/12/20 09:15:19;;;;;;;12.52;3.60;;;;;;;6.76;66.80;102700.91;5293661;28;20340;-71
2021/12/20 09:17:52;;;;;;;15.05;3.28;;;;;;;6.85;67.44;102710.63;5289861;28;20143;-72
2021/12/20 09:20:26;;;;;;;9.85;3.78;;;;;;;6.92;67.76;102711.44;5294064;28;20499;-74
2021/12/20 09:23:04;;;;;;;12.80;4.10;;;;;;;6.97;68.00;102703.34;5303095;28;20016;-72
2021/12/20 09:25:38;;;;;;;11.30;3.72;;;;;;;6.87;67.53;102707.63;5296012;28;20032;-72
2021/12/20 09:28:10;;;;;;;14.38;4.88;;;;;;;6.93;67.95;102704.88;5295202;28;20494;-71
2021/12/20 09:30:44;;;;;;;14.73;3.75;;;;;;;6.84;67.15;102702.56;5287695;28;20032;-71
2021/12/20 09:33:18;;;;;;;12.23;3.60;;;;;;;6.74;68.44;102709.38;5296773;28;20008;-71
2021/12/20 09:35:53;;;;;;;13.85;3.65;;;;;;;6.89;69.37;102714.63;5296468;27;20107;-73
2021/12/20 09:38:28;;;;;;;14.07;4.22;;;;;;;6.85;69.01;102716.16;5286860;28;20075;-72
2021/12/20 09:43:49;;;;;;;21.05;7.20;;;;;;;6.95;69.37;102719.28;5293352;28;20486;-71
2021/12/20 09:46:24;;;;;;;12.30;6.10;;;;;;;6.92;69.53;102721.63;5290915;28;20039;-71
2021/12/20 09:48:57;;;;;;;14.82;6.80;;;;;;;6.89;69.44;102722.91;5304140;28;20016;-72
2021/12/20 09:51:29;;;;;;;15.30;4.25;;;;;;;6.94;68.79;102725.84;5297176;28;20028;-72
2021/12/20 09:54:01;;;;;;;15.30;3.90;;;;;;;6.94;69.51;102733.28;5302866;28;20020;-72
2021/12/20 09:56:34;;;;;;;16.13;4.18;;;;;;;6.94;69.87;102731.38;5297224;28;20060;-72
2021/12/20 09:59:09;;;;;;;13.88;4.63;;;;;;;6.92;69.48;102733.50;5300107;28;20136;-72
2021/12/20 10:01:40;;;;;;;13.95;5.30;;;;;;;6.90;70.24;102724.63;5292409;28;20067;-72
2021/12/20 10:04:13;;;;;;;11.43;3.70;;;;;;;6.91;70.21;102725.47;5281250;28;20052;-72
2021/12/20 10:06:44;;;;;;;11.95;4.30;;;;;;;6.86;70.55;102720.59;5283911;28;20032;-72
2021/12/20 10:09:16;;;;;;;16.85;4.38;;;;;;;6.82;69.48;102721.25;5296541;28;20479;-72
2021/12/20 10:11:48;;;;;;;21.50;6.32;;;;;;;6.86;70.49;102723.34;5291731;28;20029;-71
2021/12/20 10:14:19;;;;;;;16.65;5.00;;;;;;;6.86;70.63;102723.34;5304240;28;20085;-72
2021/12/20 10:17:02;;;;;;;15.13;5.75;;;;;;;6.86;72.19;102728.88;5304631;28;20032;-72
2021/12/20 10:19:38;;;;;;;16.65;5.80;;;;;;;6.93;71.21;102726.94;5288576;28;20108;-72
2021/12/20 10:22:30;;;;;;;13.40;6.10;;;;;;;7.05;71.83;102723.47;5288590;28;20081;-71
2021/12/20 10:25:18;;;;;;;15.30;4.88;;;;;;;7.03;71.41;102728.34;5303158;28;20034;-69
2021/12/20 10:27:50;;;;;;;17.13;5.10;;;;;;;6.99;71.23;102732.63;5304181;28;20476;-72
2021/12/20 10:30:28;;;;;;;9.52;3.72;;;;;;;7.01;70.97;102730.50;5296542;28;20024;-72
2021/12/20 10:33:02;;;;;;;14.43;4.30;;;;;;;7.10;71.66;102727.25;5298339;28;20025;-71
2021/12/20 10:35:37;;;;;;;18.52;5.25;;;;;;;7.09;70.42;102719.22;5277008;28;20029;-73
2021/12/20 10:38:31;;;;;;;13.68;5.65;;;;;;;7.18;70.85;102726.16;5279324;28;20262;-73
2021/12/20 10:41:18;;;;;;;15.55;5.85;;;;;;;7.11;70.58;102730.88;5288681;28;20046;-74
2021/12/20 10:43:54;;;;;;;11.07;4.57;;;;;;;7.08;70.43;102731.28;5295635;28;20024;-74
2021/12/20 10:46:34;;;;;;;17.20;5.65;;;;;;;7.21;70.68;102736.78;5303430;28;20459;-73
2021/12/20 10:49:07;;;;;;;14.60;6.55;;;;;;;7.10;69.72;102729.16;5303488;28;20024;-73
2021/12/20 10:51:41;;;;;;;12.18;4.70;;;;;;;7.19;70.66;102727.84;5304788;28;20047;-73
2021/12/20 10:54:15;;;;;;;17.73;5.32;;;;;;;7.07;70.56;102730.47;5285284;28;20029;-73
2021/12/20 10:56:55;;;;;;;13.88;4.35;;;;;;;7.09;70.78;102721.97;5289470;28;20020;-73
2021/12/20 10:59:35;;;;;;;16.45;5.05;;;;;;;7.09;71.35;102721.97;5303977;28;20060;-73
2021/12/20 11:03:09;;;;;;;17.50;5.10;;;;;;;7.21;71.29;102719.34;5294944;28;20551;-71
2021/12/20 11:05:22;;;;;;;15.25;4.75;;;;;;;7.06;70.68;102725.19;5303384;28;20399;-72
2021/12/20 11:11:13;;;;;;;14.73;5.47;;;;;;;7.15;71.76;102726.59;5289620;28;20025;-72
2021/12/20 11:13:46;;;;;;;13.10;4.57;;;;;;;7.04;71.38;102719.88;5295879;28;20028;-73
2021/12/20 11:16:33;;;;;;;20.67;4.93;;;;;;;7.05;71.04;102727.06;5295575;28;20497;-73
2021/12/20 11:19:07;;;;;;;15.45;4.32;;;;;;;6.96;71.66;102720.97;5297985;28;20082;-72
2021/12/20 11:21:52;;;;;;;23.00;10.38;;;;;;;7.02;72.25;102712.88;5303635;28;20028;-73
2021/12/20 11:24:40;;;;;;;34.10;21.00;;;;;;;7.10;71.46;102720.91;5289058;28;20021;-73
2021/12/20 11:27:16;;;;;;;35.50;24.30;;;;;;;7.14;71.12;102713.88;5284672;28;20036;-72
2021/12/20 11:29:50;;;;;;;19.63;8.95;;;;;;;7.15;71.88;102710.03;5285745;28;20498;-72
2021/12/20 11:32:23;;;;;;;16.17;5.75;;;;;;;7.18;72.12;102715.97;5301263;28;20066;-73
2021/12/20 11:34:55;;;;;;;16.27;4.55;;;;;;;7.16;71.78;102715.34;5297380;28;20020;-71
2021/12/20 11:37:29;;;;;;;16.98;5.50;;;;;;;7.18;72.28;102720.63;5272912;28;20035;-72
2021/12/20 11:40:05;;;;;;;19.13;5.90;;;;;;;7.30;71.62;102713.34;5284164;28;20069;-72
2021/12/20 11:42:36;;;;;;;17.48;4.90;;;;;;;7.25;72.32;102713.16;5302406;28;20036;-72
2021/12/20 11:45:10;;;;;;;20.92;5.55;;;;;;;7.31;72.89;102709.53;5292328;28;20028;-72
2021/12/20 11:48:03;;;;;;;17.75;5.60;;;;;;;7.38;72.89;102715.81;5289178;28;20032;-72
2021/12/20 11:50:40;;;;;;;16.65;4.93;;;;;;;7.31;72.19;102712.28;5295493;28;20020;-73
2021/12/20 11:53:14;;;;;;;13.82;4.70;;;;;;;7.36;72.57;102712.47;5302273;28;20043;-72
2021/12/20 11:55:51;;;;;;;13.20;6.13;;;;;;;7.32;72.99;102711.22;5297114;28;20526;-71
2021/12/20 11:58:28;;;;;;;10.98;4.43;;;;;;;7.57;78.41;102711.25;5293113;28;20372;-70
2021/12/20 12:01:12;;;;;;;18.85;6.43;;;;;;;7.67;78.30;102707.13;5264666;28;20039;-71
2021/12/20 12:03:54;;;;;;;15.40;4.90;;;;;;;7.78;76.16;102709.16;5281674;28;20123;-71
2021/12/20 12:06:31;;;;;;;15.73;5.72;;;;;;;7.59;73.13;102703.59;5284148;28;20024;-69
2021/12/20 12:09:03;;;;;;;17.52;5.05;;;;;;;7.51;71.36;102700.25;5292143;28;20020;-71
2021/12/20 12:11:34;;;;;;;16.63;4.53;;;;;;;7.51;71.21;102700.25;5297501;28;20036;-70
2021/12/20 12:14:18;;;;;;;17.30;5.13;;;;;;;7.45;71.68;102699.22;5286756;28;20028;-70
2021/12/20 12:17:02;;;;;;;15.63;5.28;;;;;;;7.55;71.38;102699.56;5281101;28;20024;-70
2021/12/20 12:19:52;;;;;;;19.67;5.38;;;;;;;7.50;71.60;102713.22;5283185;28;20499;-70
2021/12/20 12:22:26;;;;;;;16.88;5.47;;;;;;;7.60;71.27;102701.66;5301844;28;20036;-69
2021/12/20 12:24:58;;;;;;;19.38;5.20;;;;;;;7.48;70.99;102697.94;5302383;28;20031;-69
2021/12/20 12:27:31;;;;;;;15.77;6.15;;;;;;;7.56;70.52;102700.41;5302630;28;20395;-69
2021/12/20 12:30:14;;;;;;;19.08;4.40;;;;;;;7.79;73.87;102702.56;5293903;28;20024;-68
2021/12/20 12:32:48;;;;;;;17.10;5.38;;;;;;;7.71;72.10;102692.66;5293600;28;20029;-69
2021/12/20 12:35:39;;;;;;;13.65;5.15;;;;;;;7.71;71.49;102687.13;5283311;28;20401;-70
2021/12/20 12:38:14;;;;;;;14.60;4.85;;;;;;;7.64;70.03;102683.56;5285877;28;20033;-70
2021/12/20 12:40:49;;;;;;;;;;;;;;;7.86;72.11;102678.50;5298997;28;20089;-70
2021/12/20 12:43:57;;;;;;;58.10;39.13;;;;;;;7.81;70.70;102676.41;5300932;28;19915;-68
2021/12/20 12:46:45;;;;;;;16.02;4.75;;;;;;;7.90;71.81;102681.63;5286946;28;20024;-71
2021/12/20 12:49:23;;;;;;;17.27;4.70;;;;;;;8.01;70.38;102680.91;5304645;28;20032;-69
2021/12/20 12:51:58;;;;;;;14.43;4.47;;;;;;;8.20;76.19;102682.59;5306113;28;20471;-71
2021/12/20 12:54:32;;;;;;;10.27;3.75;;;;;;;8.21;69.18;102676.03;5285822;28;20131;-71
2021/12/20 12:57:09;;;;;;;17.30;8.90;;;;;;;8.34;71.42;102671.41;5289333;28;20480;-70
2021/12/20 12:59:50;;;;;;;39.60;10.23;;;;;;;8.21;69.67;102676.03;5303284;28;20036;-72
2021/12/20 13:02:25;;;;;;;14.52;5.35;;;;;;;8.03;65.30;102673.25;5284706;28;20077;-70
2021/12/20 13:05:13;;;;;;;15.27;5.43;;;;;;;8.14;65.86;102668.88;5291895;28;20570;-69
2021/12/20 13:07:49;;;;;;;15.93;5.22;;;;;;;8.13;65.87;102672.69;5306138;28;20024;-70
2021/12/20 13:10:33;;;;;;;15.85;4.45;;;;;;;7.97;65.49;102671.38;5295341;28;20036;-69
2021/12/20 13:13:24;;;;;;;16.90;4.47;;;;;;;7.91;64.58;102678.66;5300333;28;20028;-69
2021/12/20 13:16:04;;;;;;;13.48;4.32;;;;;;;7.89;64.06;102668.91;5305475;28;20119;-69
2021/12/20 13:18:37;;;;;;;18.98;4.32;;;;;;;7.92;65.29;102671.22;5304751;28;20020;-68
2021/12/20 13:21:14;;;;;;;15.70;5.13;;;;;;;7.87;66.58;102666.34;5291001;28;20104;-66
2021/12/20 13:23:49;;;;;;;18.92;5.72;;;;;;;7.70;67.36;102663.34;5287672;28;20016;-68
2021/12/20 13:26:21;;;;;;;26.63;9.40;;;;;;;7.67;68.33;102666.56;5295161;28;20055;-70
2021/12/20 13:28:55;;;;;;;16.08;5.63;;;;;;;7.65;68.72;102668.69;5281563;28;20047;-70
2021/12/20 13:31:26;;;;;;;22.45;7.70;;;;;;;7.91;73.74;102664.00;5304177;28;20031;-67
2021/12/20 13:34:00;;;;;;;16.25;6.35;;;;;;;8.04;75.72;102659.19;5295525;28;20446;-69
2021/12/20 13:36:35;;;;;;;19.58;6.22;;;;;;;7.81;71.19;102659.00;5299314;28;20081;-70
2021/12/20 13:39:09;;;;;;;14.98;5.00;;;;;;;8.30;77.79;102659.97;5299924;28;20028;-69
2021/12/20 13:41:40;;;;;;;21.30;7.22;;;;;;;7.99;72.75;102666.47;5275804;28;20028;-70
2021/12/20 13:44:16;;;;;;;19.05;5.32;;;;;;;7.90;70.94;102662.28;5279864;28;20032;-69
2021/12/20 13:46:50;;;;;;;17.90;5.07;;;;;;;7.59;69.30;102661.31;5296604;28;20020;-70
2021/12/20 13:49:21;;;;;;;14.90;5.30;;;;;;;7.71;70.59;102667.78;5303599;28;20074;-71
2021/12/20 13:51:57;;;;;;;18.87;6.03;;;;;;;7.87;71.76;102662.75;5304197;28;20035;-71
2021/12/20 13:54:37;;;;;;;18.83;6.03;;;;;;;7.70;74.16;102663.34;5304633;28;20286;-71
2021/12/20 13:57:24;;;;;;;13.55;6.10;;;;;;;7.75;70.56;102668.19;5303885;28;20036;-70
2021/12/20 13:59:58;;;;;;;19.08;7.63;;;;;;;7.62;69.69;102669.16;5300838;28;20507;-69
2021/12/20 14:02:39;;;;;;;15.80;5.75;;;;;;;7.61;69.75;102670.22;5293993;28;20020;-71
2021/12/20 14:05:14;;;;;;;26.45;6.70;;;;;;;7.65;70.10;102671.47;5305096;28;20044;-71
2021/12/20 14:07:57;;;;;;;21.98;9.38;;;;;;;7.68;70.01;102665.47;5304268;28;20353;-70
2021/12/20 14:10:36;;;;;;;24.92;6.50;;;;;;;7.58;70.24;102673.44;5275977;28;20036;-72
2021/12/20 14:13:14;;;;;;;24.15;7.65;;;;;;;7.46;69.81;102666.94;5303936;28;20024;-70
2021/12/20 14:15:48;;;;;;;20.85;6.45;;;;;;;7.33;70.48;102662.38;5304424;28;20028;-72
2021/12/20 14:18:20;;;;;;;24.75;7.15;;;;;;;7.38;70.06;102663.38;5292701;28;20037;-73
2021/12/20 14:20:57;;;;;;;25.58;8.00;;;;;;;7.51;70.85;102667.09;5303844;28;20024;-73
2021/12/20 14:23:34;;;;;;;22.20;6.78;;;;;;;7.43;70.96;102659.94;5297296;28;20123;-71
2021/12/20 14:26:19;;;;;;;19.90;6.00;;;;;;;7.35;71.21;102661.06;5304247;28;20024;-72
2021/12/20 14:28:52;;;;;;;22.05;7.28;;;;;;;7.43;70.82;102664.63;5302512;28;20028;-73
2021/12/20 14:31:34;;;;;;;17.98;6.75;;;;;;;7.39;70.75;102656.81;5303487;28;20028;-71
2021/12/20 14:34:12;;;;;;;22.80;5.53;;;;;;;7.36;71.79;102665.53;5303778;28;20028;-72
2021/12/20 14:36:45;;;;;;;22.58;6.50;;;;;;;7.27;71.71;102664.09;5290534;28;20027;-71
2021/12/20 14:39:20;;;;;;;18.08;6.80;;;;;;;7.22;71.33;102663.94;5303983;28;20115;-68
2021/12/20 14:41:54;;;;;;;26.15;7.35;;;;;;;7.21;71.87;102662.25;5302711;28;20066;-71
2021/12/20 14:44:42;;;;;;;22.02;8.20;;;;;;;7.54;76.60;102658.38;5302731;28;20024;-71
2021/12/20 14:47:27;;;;;;;23.65;8.00;;;;;;;7.19;72.62;102661.63;5302992;28;20043;-70
2021/12/20 14:50:04;;;;;;;19.25;5.80;;;;;;;7.14;72.00;102664.22;5286956;28;20020;-71
2021/12/20 14:52:39;;;;;;;23.83;6.90;;;;;;;7.12;71.50;102663.56;5271596;28;20086;-69
2021/12/20 14:55:12;;;;;;;22.63;6.95;;;;;;;7.05;72.33;102662.78;5302399;28;20111;-70
2021/12/20 14:57:51;;;;;;;20.15;7.30;;;;;;;7.11;72.27;102661.91;5293831;28;20041;-70
2021/12/20 15:00:24;;;;;;;24.77;6.45;;;;;;;6.98;72.92;102660.06;5295462;28;20028;-69
2021/12/20 15:02:55;;;;;;;27.73;10.27;;;;;;;7.01;72.08;102665.13;5302859;28;20357;-70
2021/12/20 15:05:27;;;;;;;20.52;7.05;;;;;;;6.95;72.48;102655.84;5296274;28;20123;-70
2021/12/20 15:07:58;;;;;;;17.60;6.30;;;;;;;6.91;72.17;102659.25;5286447;28;20046;-71
2021/12/20 15:10:29;;;;;;;18.45;7.20;;;;;;;6.90;72.35;102657.53;5276256;28;20028;-71
2021/12/20 15:13:01;;;;;;;21.17;5.50;;;;;;;6.77;72.78;102655.72;5302984;28;20078;-71
2021/12/20 15:15:32;;;;;;;22.10;8.02;;;;;;;6.83;72.38;102660.34;5298298;28;20074;-69
2021/12/20 15:18:03;;;;;;;20.83;7.25;;;;;;;6.78;72.68;102662.94;5298745;28;20031;-68
2021/12/20 15:20:35;;;;;;;20.42;7.28;;;;;;;6.78;72.89;102665.69;5303429;28;20028;-69
2021/12/20 15:23:06;;;;;;;16.42;6.07;;;;;;;6.75;73.63;102661.47;5301392;28;20028;-69
2021/12/20 15:25:39;;;;;;;23.70;8.07;;;;;;;6.68;73.17;102654.28;5301290;28;20035;-70
2021/12/20 15:28:11;;;;;;;22.50;7.93;;;;;;;6.71;73.01;102660.19;5292907;28;20027;-70
2021/12/20 15:30:42;;;;;;;26.25;8.57;;;;;;;6.71;73.22;102660.19;5284319;28;20031;-71
2021/12/20 15:33:14;;;;;;;25.60;9.30;;;;;;;6.61;73.53;102654.31;5303192;28;20024;-71
2021/12/20 15:35:45;;;;;;;33.38;12.23;;;;;;;6.65;73.92;102665.75;5294209;28;20388;-72
2021/12/20 15:38:16;;;;;;;22.20;8.73;;;;;;;6.61;73.79;102661.75;5279291;28;20456;-71
2021/12/20 15:40:48;;;;;;;20.63;8.77;;;;;;;6.61;73.95;102658.97;5290400;28;20388;-69
2021/12/20 15:43:19;;;;;;;22.85;9.45;;;;;;;6.57;73.30;102658.59;5289302;28;20032;-68
2021/12/20 15:45:50;;;;;;;22.38;9.15;;;;;;;6.47;73.32;102652.69;5271267;28;20024;-68
2021/12/20 15:48:23;;;;;;;24.08;8.82;;;;;;;6.49;74.06;102651.41;5283664;28;20019;-70
2021/12/20 15:50:56;;;;;;;18.77;7.53;;;;;;;6.42;74.04;102661.59;5301256;28;20028;-69
2021/12/20 15:53:32;;;;;;;20.30;7.93;;;;;;;6.34;74.10;102658.22;5295858;28;20039;-70
2021/12/20 15:56:05;;;;;;;18.85;8.45;;;;;;;6.36;74.50;102661.63;5302542;28;20040;-70
2021/12/20 15:58:36;;;;;;;26.27;6.85;;;;;;;6.21;74.30;102654.47;5280615;28;20127;-71
2021/12/20 16:01:08;;;;;;;20.48;8.10;;;;;;;6.28;74.76;102654.44;5284829;28;20162;-70
2021/12/20 16:03:40;;;;;;;21.88;7.45;;;;;;;6.31;74.41;102648.47;5298746;28;20047;-70
2021/12/20 16:06:12;;;;;;;21.63;7.47;;;;;;;6.28;74.77;102649.75;5301687;28;20032;-70
2021/12/20 16:08:44;;;;;;;23.30;7.22;;;;;;;6.19;75.25;102655.75;5288469;28;20033;-69
2021/12/20 16:11:15;;;;;;;21.30;6.97;;;;;;;6.20;74.72;102651.91;5282122;28;20032;-69
2021/12/20 16:13:46;;;;;;;25.95;9.55;;;;;;;6.14;75.08;102658.31;5297357;28;20467;-70
2021/12/20 16:16:18;;;;;;;24.38;9.65;;;;;;;6.24;74.95;102648.53;5293049;28;20012;-70
2021/12/20 16:18:49;;;;;;;17.08;7.47;;;;;;;6.13;75.11;102651.94;5273084;28;20060;-70
2021/12/20 16:21:20;;;;;;;19.13;8.38;;;;;;;6.13;75.51;102656.59;5305046;28;20028;-71
2021/12/20 16:23:51;;;;;;;30.10;11.10;;;;;;;5.96;75.39;102659.00;5307455;28;20024;-71
2021/12/20 16:26:24;;;;;;;24.65;11.52;;;;;;;6.04;75.59;102654.09;5297079;28;20024;-69
2021/12/20 16:28:56;;;;;;;23.50;8.70;;;;;;;5.99;76.13;102648.38;5297485;28;20024;-71
2021/12/20 16:31:27;;;;;;;21.70;9.02;;;;;;;6.34;76.53;102642.56;5299650;28;20028;-75
2021/12/20 16:33:59;;;;;;;20.42;8.40;;;;;;;6.26;75.43;102653.81;5285436;28;20021;-68
2021/12/20 16:36:30;;;;;;;22.20;7.95;;;;;;;6.19;75.34;102651.09;5289981;28;20020;-68
2021/12/20 16:39:03;;;;;;;23.35;8.68;;;;;;;6.08;74.66;102649.84;5296218;28;20082;-68
2021/12/20 16:41:37;;;;;;;27.38;14.70;;;;;;;6.07;74.76;102653.66;5300442;28;20102;-68
2021/12/20 16:44:17;;;;;;;26.20;9.50;;;;;;;5.98;75.33;102649.44;5301862;28;20051;-68
2021/12/20 16:46:57;;;;;;;21.23;9.13;;;;;;;5.91;75.25;102656.84;5306719;28;20031;-68
2021/12/20 16:49:28;;;;;;;20.90;10.18;;;;;;;5.88;75.22;102666.38;5302457;28;20396;-69
2021/12/20 16:52:00;;;;;;;26.08;10.52;;;;;;;5.83;75.46;102660.66;5295213;28;20024;-68
2021/12/20 16:54:31;;;;;;;25.50;13.68;;;;;;;5.84;76.05;102664.25;5305165;28;20107;-69
2021/12/20 16:57:03;;;;;;;21.27;9.18;;;;;;;5.79;75.54;102661.28;5306600;28;20024;-69
2021/12/20 16:59:34;;;;;;;26.17;9.82;;;;;;;5.92;75.89;102669.53;5305705;28;20026;-69
2021/12/20 17:02:08;;;;;;;20.33;11.93;;;;;;;5.77;76.03;102663.41;5280862;28;20032;-70
2021/12/20 17:04:42;;;;;;;39.33;18.48;;;;;;;5.62;76.67;102660.88;5290333;28;20020;-69
2021/12/20 17:07:13;;;;;;;27.13;13.05;;;;;;;5.60;76.75;102658.34;5300881;28;20035;-70
2021/12/20 17:09:45;;;;;;;23.73;10.32;;;;;;;5.66;76.70;102667.66;5290768;28;20456;-69
2021/12/20 17:12:16;;;;;;;28.30;11.80;;;;;;;5.64;76.50;102662.34;5305428;28;20047;-70
2021/12/20 17:14:48;;;;;;;21.20;8.35;;;;;;;5.55;76.71;102660.88;5305925;28;20020;-69
2021/12/20 17:17:19;;;;;;;22.33;8.52;;;;;;;5.50;77.00;102657.09;5289241;28;20057;-69
2021/12/20 17:19:50;;;;;;;19.38;9.25;;;;;;;5.44;77.19;102662.38;5300241;28;20118;-69
2021/12/20 17:22:22;;;;;;;21.90;8.00;;;;;;;5.40;77.16;102658.34;5298569;28;20086;-69
2021/12/20 17:24:53;;;;;;;25.55;10.15;;;;;;;5.32;77.60;102668.72;5298792;28;20070;-69
2021/12/20 17:27:24;;;;;;;18.05;9.00;;;;;;;5.39;77.27;102666.78;5293502;28;20031;-70
2021/12/20 17:29:55;;;;;;;21.33;9.02;;;;;;;5.25;77.81;102665.94;5270325;28;20222;-69
